Time;durP1;ratioP1;P1;durP2;ratioP2;P2;SDS_P1;SDS_P2;PMS_P1;PMS_P2;Temp;Humidity;BMP_temperature;BMP_pressure;BME280_temperature;BME280_humidity;BME280_pressure;Samples;Min_cycle;Max_cycle;Signal;HPM_P1;HPM_P2
2021/11/11 00:02:04;;;;;;;23.30;20.93;;;4.80;65.10;;;;;;4978912;28;20186;-92
2021/11/11 00:04:30;;;;;;;22.70;20.40;;;4.90;64.60;;;;;;4978537;28;20426;-92
2021/11/11 00:07:00;;;;;;;22.20;20.10;;;4.80;64.00;;;;;;4978112;28;20418;-92
2021/11/11 00:09:27;;;;;;;22.57;20.10;;;4.80;65.30;;;;;;4976407;28;20548;-87
2021/11/11 00:11:54;;;;;;;23.77;20.77;;;4.80;64.80;;;;;;4972886;28;20508;-86
2021/11/11 00:14:19;;;;;;;24.23;21.70;;;4.80;65.70;;;;;;4972084;28;20430;-88
2021/11/11 00:16:45;;;;;;;22.73;20.33;;;4.70;66.70;;;;;;4972638;28;20433;-88
2021/11/11 00:19:11;;;;;;;21.87;19.73;;;4.80;65.70;;;;;;4972332;28;20509;-88
2021/11/11 00:21:37;;;;;;;25.07;20.10;;;4.80;64.90;;;;;;4973095;28;20178;-87
2021/11/11 00:24:03;;;;;;;22.40;19.60;;;4.80;65.50;;;;;;4972797;28;20907;-88
2021/11/11 00:26:29;;;;;;;23.63;21.00;;;4.80;65.10;;;;;;4972066;28;20429;-89
2021/11/11 00:28:56;;;;;;;22.00;19.70;;;4.70;65.80;;;;;;4973617;28;20907;-87
2021/11/11 00:31:22;;;;;;;23.67;20.50;;;4.70;65.60;;;;;;4972942;28;20265;-87
2021/11/11 00:33:48;;;;;;;23.07;20.77;;;4.70;64.90;;;;;;4977390;28;20838;-94
2021/11/11 00:36:17;;;;;;;25.37;22.07;;;4.60;65.60;;;;;;4984907;28;20426;-93
2021/11/11 00:38:42;;;;;;;23.30;20.90;;;4.70;66.10;;;;;;4984598;28;20179;-93
2021/11/11 00:41:10;;;;;;;25.03;22.40;;;4.80;65.10;;;;;;4984968;28;20426;-93
2021/11/11 00:43:37;;;;;;;24.20;21.30;;;4.70;65.90;;;;;;4983630;28;20422;-94
2021/11/11 00:46:03;;;;;;;24.10;21.53;;;4.60;65.60;;;;;;4983259;28;20425;-93
2021/11/11 00:48:29;;;;;;;26.33;21.30;;;4.60;66.00;;;;;;4983560;28;20414;-92
2021/11/11 00:50:56;;;;;;;22.90;20.50;;;4.60;66.10;;;;;;4983285;28;20460;-93
2021/11/11 00:53:22;;;;;;;20.80;18.60;;;4.60;66.60;;;;;;4983047;28;20174;-93
2021/11/11 00:55:48;;;;;;;22.03;19.77;;;4.70;64.60;;;;;;4983572;28;20457;-94
2021/11/11 00:58:14;;;;;;;23.07;20.47;;;4.70;65.10;;;;;;4983140;28;20175;-92
2021/11/11 01:00:39;;;;;;;22.63;19.40;;;4.60;65.20;;;;;;4982479;28;20635;-92
2021/11/11 01:03:07;;;;;;;22.77;20.27;;;4.60;65.90;;;;;;4983046;28;20205;-92
2021/11/11 01:05:36;;;;;;;21.17;19.13;;;4.60;65.30;;;;;;4982537;28;20580;-93
2021/11/11 01:08:03;;;;;;;22.80;18.10;;;4.70;65.20;;;;;;4983477;28;20508;-93
2021/11/11 01:10:28;;;;;;;19.37;17.43;;;4.60;64.30;;;;;;4983418;28;20459;-93
2021/11/11 01:12:55;;;;;;;19.90;18.00;;;4.60;64.80;;;;;;4983487;28;20414;-93
2021/11/11 01:15:28;;;;;;;21.70;19.00;;;4.50;64.90;;;;;;4983843;28;20175;-93
2021/11/11 01:17:54;;;;;;;20.67;18.63;;;4.50;65.10;;;;;;4983734;28;20496;-93
2021/11/11 01:20:21;;;;;;;19.93;17.83;;;4.60;65.10;;;;;;4983321;28;20418;-91
2021/11/11 01:22:49;;;;;;;19.10;17.10;;;4.60;64.60;;;;;;4983433;28;20414;-93
2021/11/11 01:25:18;;;;;;;19.30;17.17;;;4.50;64.30;;;;;;4983384;28;20464;-92
2021/11/11 01:27:45;;;;;;;20.10;16.77;;;4.50;65.10;;;;;;4983212;28;20414;-92
2021/11/11 01:30:12;;;;;;;19.97;18.07;;;4.50;65.20;;;;;;4983570;28;20989;-92
2021/11/11 01:32:38;;;;;;;18.73;16.80;;;4.50;64.60;;;;;;4981905;28;20414;-91
2021/11/11 01:35:04;;;;;;;18.63;16.77;;;4.40;65.00;;;;;;4978203;28;20787;-91
2021/11/11 01:37:31;;;;;;;21.77;19.43;;;4.40;65.20;;;;;;4978702;28;20472;-91
2021/11/11 01:39:56;;;;;;;21.43;19.30;;;4.50;65.00;;;;;;4978186;28;20418;-91
2021/11/11 01:42:22;;;;;;;19.87;17.97;;;4.50;65.40;;;;;;4978499;28;20934;-92
2021/11/11 01:44:50;;;;;;;20.87;18.80;;;4.60;65.10;;;;;;4980218;28;20186;-91
2021/11/11 01:47:16;;;;;;;19.90;17.87;;;4.40;64.80;;;;;;4983278;28;20480;-91
2021/11/11 01:49:42;;;;;;;21.37;19.10;;;4.40;65.20;;;;;;4994503;28;20461;-92
2021/11/11 01:52:09;;;;;;;22.83;19.00;;;4.30;66.00;;;;;;4982149;28;20438;-89
2021/11/11 01:54:34;;;;;;;23.73;19.23;;;4.30;66.10;;;;;;4977185;28;20215;-91
2021/11/11 01:57:00;;;;;;;19.77;17.67;;;4.40;66.80;;;;;;4975212;28;20421;-91
2021/11/11 01:59:26;;;;;;;21.30;18.17;;;4.40;65.80;;;;;;4975227;28;20263;-91
2021/11/11 02:01:52;;;;;;;22.23;19.97;;;4.30;66.20;;;;;;4974496;28;20182;-93
2021/11/11 02:04:18;;;;;;;19.87;17.60;;;4.30;66.40;;;;;;4975310;28;21031;-92
2021/11/11 02:06:43;;;;;;;20.70;18.60;;;4.40;66.20;;;;;;4975066;28;20179;-92
2021/11/11 02:09:09;;;;;;;22.40;20.10;;;4.40;66.10;;;;;;4976617;28;20221;-91
2021/11/11 02:11:35;;;;;;;18.60;16.63;;;4.40;65.30;;;;;;4974589;28;20209;-91
2021/11/11 02:14:01;;;;;;;20.73;18.57;;;4.40;65.20;;;;;;4974990;28;20204;-92
2021/11/11 02:16:26;;;;;;;23.20;20.90;;;4.40;65.10;;;;;;4975765;28;20225;-93
2021/11/11 02:18:52;;;;;;;21.30;19.10;;;4.50;65.10;;;;;;4974979;28;20178;-88
2021/11/11 02:21:19;;;;;;;19.73;17.63;;;4.30;65.20;;;;;;4974429;28;20246;-88
2021/11/11 02:23:45;;;;;;;20.67;18.57;;;4.30;66.00;;;;;;4973303;28;20229;-88
2021/11/11 02:26:11;;;;;;;22.27;18.43;;;4.30;65.40;;;;;;4973243;28;20473;-88
2021/11/11 02:28:37;;;;;;;22.53;18.70;;;4.30;65.30;;;;;;4973222;28;20547;-89
2021/11/11 02:31:03;;;;;;;20.60;18.50;;;4.30;65.20;;;;;;4972403;28;20203;-89
2021/11/11 02:33:29;;;;;;;20.67;17.20;;;4.10;65.50;;;;;;4972768;28;20384;-88
2021/11/11 02:35:57;;;;;;;19.43;17.43;;;4.20;65.80;;;;;;4972876;28;20809;-88
2021/11/11 02:38:24;;;;;;;21.57;19.30;;;4.30;65.10;;;;;;4972520;28;20411;-87
2021/11/11 02:40:50;;;;;;;20.30;17.67;;;4.20;64.40;;;;;;4972786;28;20425;-89
2021/11/11 02:43:17;;;;;;;20.23;18.43;;;4.20;65.40;;;;;;4972343;28;20414;-88
2021/11/11 02:45:46;;;;;;;20.20;18.10;;;4.30;64.30;;;;;;4972472;28;20472;-87
2021/11/11 02:48:14;;;;;;;21.50;17.93;;;4.20;64.10;;;;;;4972440;28;20505;-88
2021/11/11 02:50:40;;;;;;;20.23;18.30;;;4.20;64.50;;;;;;4972297;28;20556;-88
2021/11/11 02:53:08;;;;;;;21.53;18.07;;;4.30;63.90;;;;;;4971991;28;20418;-89
2021/11/11 02:55:34;;;;;;;20.57;18.37;;;4.20;64.10;;;;;;4972434;28;20469;-88
2021/11/11 02:58:01;;;;;;;21.03;19.03;;;4.20;64.40;;;;;;4972174;28;20414;-88
2021/11/11 03:00:28;;;;;;;19.90;17.93;;;4.30;63.80;;;;;;4972162;28;20175;-90
2021/11/11 03:02:55;;;;;;;19.80;17.70;;;4.20;63.80;;;;;;4974590;28;20445;-92
2021/11/11 03:05:26;;;;;;;20.17;18.27;;;4.20;65.10;;;;;;4973698;28;20426;-91
2021/11/11 03:07:52;;;;;;;20.90;18.67;;;4.20;64.60;;;;;;4974229;28;20422;-92
2021/11/11 03:10:21;;;;;;;19.87;17.67;;;4.20;64.30;;;;;;4973877;28;20449;-91
2021/11/11 03:12:49;;;;;;;21.20;19.00;;;4.10;64.40;;;;;;4974397;28;20515;-92
2021/11/11 03:15:16;;;;;;;19.30;17.30;;;4.20;64.70;;;;;;4973983;28;20418;-92
2021/11/11 03:17:42;;;;;;;19.83;17.73;;;4.10;65.60;;;;;;4974544;28;20422;-91
2021/11/11 03:20:10;;;;;;;20.70;18.50;;;4.10;65.50;;;;;;4973018;28;20423;-92
2021/11/11 03:22:36;;;;;;;20.60;18.40;;;4.10;65.80;;;;;;4973633;28;20414;-92
2021/11/11 03:25:03;;;;;;;20.00;18.00;;;4.20;64.90;;;;;;4973648;28;20433;-92
2021/11/11 03:27:30;;;;;;;20.37;18.13;;;4.20;64.70;;;;;;4973983;28;20505;-93
2021/11/11 03:29:56;;;;;;;18.47;16.63;;;4.00;65.10;;;;;;4973867;28;20466;-92
2021/11/11 03:32:22;;;;;;;18.43;16.73;;;4.10;65.50;;;;;;4976968;28;20929;-92
2021/11/11 03:34:49;;;;;;;21.07;19.03;;;4.10;65.00;;;;;;4976393;28;20171;-92
2021/11/11 03:37:17;;;;;;;21.23;18.93;;;4.10;64.70;;;;;;4976126;28;20438;-93
2021/11/11 03:39:43;;;;;;;19.08;17.17;;;4.10;65.10;;;;;;4976225;28;20501;-89
2021/11/11 03:42:11;;;;;;;19.47;17.50;;;4.00;64.60;;;;;;4973238;28;20191;-91
2021/11/11 03:44:38;;;;;;;21.63;19.53;;;4.10;65.10;;;;;;4974259;28;20178;-90
2021/11/11 03:47:03;;;;;;;22.20;19.27;;;4.10;64.60;;;;;;4972801;28;20488;-92
2021/11/11 03:49:34;;;;;;;20.47;18.50;;;4.00;64.10;;;;;;4974865;28;20450;-92
2021/11/11 03:52:01;;;;;;;20.83;18.67;;;4.00;63.90;;;;;;4973357;28;20425;-91
2021/11/11 03:54:27;;;;;;;20.53;18.63;;;3.90;65.00;;;;;;4973338;28;20509;-92
2021/11/11 03:56:56;;;;;;;19.50;17.70;;;3.90;65.20;;;;;;4972863;28;20504;-92
2021/11/11 03:59:22;;;;;;;20.20;18.30;;;3.90;64.80;;;;;;4974035;28;20485;-92
2021/11/11 04:01:48;;;;;;;20.47;18.37;;;3.90;65.20;;;;;;4973508;28;20922;-91
2021/11/11 04:04:14;;;;;;;19.50;17.40;;;3.90;65.50;;;;;;4972717;28;20807;-93
2021/11/11 04:06:40;;;;;;;18.70;16.90;;;3.80;65.50;;;;;;4973270;28;20422;-91
2021/11/11 04:09:06;;;;;;;20.70;18.70;;;3.80;65.50;;;;;;4972739;28;20237;-93
2021/11/11 04:11:31;;;;;;;21.80;19.70;;;3.80;64.80;;;;;;4974291;28;20182;-93
2021/11/11 04:14:00;;;;;;;20.53;18.63;;;3.80;65.60;;;;;;4972362;28;20430;-93
2021/11/11 04:16:27;;;;;;;21.77;19.47;;;3.80;65.60;;;;;;4973045;28;20209;-92
2021/11/11 04:18:53;;;;;;;23.93;21.47;;;3.80;66.00;;;;;;4973974;28;20422;-93
2021/11/11 04:21:20;;;;;;;23.63;21.30;;;3.80;66.60;;;;;;4974554;28;20433;-92
2021/11/11 04:23:47;;;;;;;23.07;20.83;;;3.80;66.60;;;;;;4973593;28;20445;-90
2021/11/11 04:29:10;;;;;;;23.90;21.50;;;3.90;65.50;;;;;;4972575;28;20457;-91
2021/11/11 04:31:45;;;;;;;26.00;22.90;;;3.80;65.50;;;;;;4971638;28;20430;-91
2021/11/11 04:34:14;;;;;;;24.50;22.20;;;3.80;65.90;;;;;;4972817;28;20417;-90
2021/11/11 05:03:11;;;;;;;26.13;23.50;;;3.60;66.40;;;;;;4979913;28;20382;-93
2021/11/11 05:05:38;;;;;;;24.00;21.60;;;3.60;67.20;;;;;;4978054;28;20507;-94
2021/11/11 05:11:26;;;;;;;25.50;22.93;;;3.70;66.50;;;;;;4977830;28;20529;-93
2021/11/11 05:13:53;;;;;;;25.10;22.60;;;3.60;66.40;;;;;;4978516;28;20434;-93
2021/11/11 05:16:18;;;;;;;26.13;23.50;;;3.60;66.40;;;;;;4978457;28;20596;-94
2021/11/11 05:18:45;;;;;;;26.73;24.13;;;3.70;65.50;;;;;;4977492;28;20422;-94
2021/11/11 05:21:11;;;;;;;23.40;21.33;;;3.60;66.30;;;;;;4979544;28;20183;-94
2021/11/11 05:23:36;;;;;;;22.20;19.80;;;3.50;66.70;;;;;;4980760;28;20531;-93
2021/11/11 05:26:03;;;;;;;23.57;21.30;;;3.60;67.00;;;;;;4978652;28;20710;-87
2021/11/11 05:28:28;;;;;;;23.03;20.63;;;3.50;67.70;;;;;;4976065;28;20434;-87
2021/11/11 05:30:54;;;;;;;23.73;20.40;;;3.60;67.00;;;;;;4975842;28;20980;-88
2021/11/11 05:33:20;;;;;;;20.90;18.90;;;3.60;66.40;;;;;;4975877;28;20185;-86
2021/11/11 05:35:45;;;;;;;21.17;18.90;;;3.50;66.30;;;;;;4975575;28;20187;-88
2021/11/11 05:38:11;;;;;;;21.80;19.70;;;3.50;67.40;;;;;;4975761;28;20179;-87
2021/11/11 05:40:37;;;;;;;23.23;20.70;;;3.50;67.20;;;;;;4975315;28;20238;-88
2021/11/11 05:43:03;;;;;;;28.00;21.00;;;3.50;67.30;;;;;;4975679;28;20206;-87
2021/11/11 05:45:28;;;;;;;26.70;24.10;;;3.50;67.10;;;;;;4975534;28;20229;-87
2021/11/11 05:47:54;;;;;;;25.63;22.83;;;3.40;68.10;;;;;;4975000;28;20179;-89
2021/11/11 05:50:21;;;;;;;27.40;24.80;;;3.40;67.40;;;;;;4975426;28;20461;-87
2021/11/11 05:52:46;;;;;;;27.27;24.37;;;3.50;67.40;;;;;;4975077;28;20179;-87
2021/11/11 05:55:12;;;;;;;27.60;24.70;;;3.60;67.10;;;;;;4975395;28;20420;-87
2021/11/11 05:57:39;;;;;;;26.37;23.77;;;3.60;66.10;;;;;;4974901;28;20225;-88
2021/11/11 06:00:10;;;;;;;25.77;22.97;;;3.50;66.30;;;;;;4958586;28;20955;-87
2021/11/11 06:02:35;;;;;;;27.50;24.80;;;3.50;65.40;;;;;;4974989;28;20465;-88
2021/11/11 06:05:01;;;;;;;27.30;24.77;;;3.50;64.90;;;;;;4976372;28;20430;-94
2021/11/11 06:07:27;;;;;;;27.00;24.53;;;3.40;65.00;;;;;;4981527;28;20865;-93
2021/11/11 06:09:53;;;;;;;27.00;24.50;;;3.30;66.10;;;;;;4980623;28;20245;-93
2021/11/11 06:12:18;;;;;;;26.63;24.20;;;3.40;66.00;;;;;;4997210;28;20182;-88
2021/11/11 06:14:44;;;;;;;29.60;26.80;;;3.40;65.70;;;;;;4975115;28;20703;-87
2021/11/11 06:17:10;;;;;;;27.97;25.37;;;3.30;66.20;;;;;;4975240;28;20225;-87
2021/11/11 06:19:38;;;;;;;28.23;25.33;;;3.30;66.20;;;;;;4974955;28;20555;-87
2021/11/11 06:22:07;;;;;;;27.03;23.50;;;3.20;66.60;;;;;;4974687;28;20222;-87
2021/11/11 06:24:33;;;;;;;26.97;24.10;;;3.20;66.20;;;;;;4975028;28;20442;-86
2021/11/11 06:26:59;;;;;;;28.57;25.73;;;3.20;66.60;;;;;;4974586;28;20517;-88
2021/11/11 06:29:25;;;;;;;27.23;24.60;;;3.20;67.00;;;;;;4974662;28;20457;-87
2021/11/11 06:31:51;;;;;;;28.17;25.23;;;3.20;67.00;;;;;;4974245;28;20640;-87
2021/11/11 06:34:17;;;;;;;29.27;26.20;;;3.20;66.10;;;;;;4975490;28;20456;-88
2021/11/11 06:36:42;;;;;;;26.87;24.33;;;3.30;65.80;;;;;;4976491;28;20915;-88
2021/11/11 06:39:08;;;;;;;30.00;24.93;;;3.20;65.10;;;;;;4987099;28;20240;-88
2021/11/11 06:41:34;;;;;;;26.63;23.97;;;3.10;65.90;;;;;;4988384;28;20186;-88
2021/11/11 06:44:00;;;;;;;28.50;24.27;;;3.00;66.10;;;;;;4976049;28;20545;-88
2021/11/11 06:46:25;;;;;;;27.47;24.80;;;3.00;66.30;;;;;;4975161;28;20182;-88
2021/11/11 06:48:51;;;;;;;25.27;22.67;;;3.00;65.80;;;;;;4976427;28;20214;-87
2021/11/11 06:51:17;;;;;;;26.83;24.40;;;3.00;66.50;;;;;;4974164;28;20210;-88
2021/11/11 06:53:43;;;;;;;27.47;25.07;;;3.10;66.70;;;;;;4974828;28;20325;-88
2021/11/11 06:56:09;;;;;;;24.77;22.23;;;3.20;66.80;;;;;;4974322;28;20509;-87
2021/11/11 06:58:35;;;;;;;27.53;24.67;;;3.20;67.00;;;;;;4974061;28;20174;-88
2021/11/11 07:01:03;;;;;;;24.90;22.60;;;3.10;66.20;;;;;;4975182;28;20430;-88
2021/11/11 07:03:35;;;;;;;27.83;24.80;;;3.20;66.50;;;;;;4974707;28;20426;-89
2021/11/11 07:06:02;;;;;;;25.00;22.50;;;3.20;65.30;;;;;;4967891;28;20547;-88
2021/11/11 07:08:30;;;;;;;30.03;25.43;;;3.20;66.20;;;;;;4974549;28;20437;-88
2021/11/11 07:11:04;;;;;;;26.30;23.60;;;3.10;66.00;;;;;;4974488;28;20473;-88
2021/11/11 07:13:33;;;;;;;27.10;24.30;;;3.20;67.10;;;;;;4973653;28;20825;-88
2021/11/11 07:19:26;;;;;;;26.40;23.70;;;3.20;66.80;;;;;;4974337;28;20518;-87
2021/11/11 07:22:03;;;;;;;28.30;22.63;;;3.40;66.70;;;;;;4974802;28;20455;-88
2021/11/11 07:24:35;;;;;;;27.13;24.53;;;3.40;66.20;;;;;;4974009;28;20186;-87
2021/11/11 07:27:11;;;;;;;27.00;24.20;;;3.50;66.30;;;;;;4973546;28;20480;-88
2021/11/11 07:29:38;;;;;;;25.60;22.90;;;3.40;65.70;;;;;;4974402;28;20548;-91
2021/11/11 07:32:04;;;;;;;24.83;22.23;;;3.40;66.20;;;;;;4975621;28;20414;-90
2021/11/11 07:34:30;;;;;;;24.03;22.03;;;3.50;66.30;;;;;;4974731;28;20418;-89
2021/11/11 07:36:57;;;;;;;26.37;23.80;;;3.60;66.00;;;;;;4979580;28;20429;-88
2021/11/11 07:39:24;;;;;;;26.20;23.60;;;3.60;65.30;;;;;;4989126;28;20643;-89
2021/11/11 07:41:50;;;;;;;26.57;22.77;;;3.50;64.90;;;;;;4983438;28;20450;-90
2021/11/11 07:44:15;;;;;;;24.40;22.07;;;3.40;65.60;;;;;;4974726;28;20464;-91
2021/11/11 07:46:42;;;;;;;24.80;22.20;;;3.40;66.10;;;;;;4975135;28;20174;-92
2021/11/11 07:49:09;;;;;;;24.50;22.30;;;3.60;65.10;;;;;;4975016;28;20187;-92
2021/11/11 07:51:34;;;;;;;26.93;21.57;;;3.60;65.20;;;;;;4975032;28;20476;-91
2021/11/11 07:54:02;;;;;;;25.70;23.40;;;3.70;65.30;;;;;;4974475;28;20842;-90
2021/11/11 07:56:29;;;;;;;24.30;22.07;;;3.70;65.30;;;;;;4974147;28;20236;-90
2021/11/11 07:58:55;;;;;;;26.67;23.83;;;3.70;64.80;;;;;;4974832;28;20437;-89
2021/11/11 08:01:24;;;;;;;26.73;24.00;;;3.80;65.20;;;;;;4975532;28;20453;-92
2021/11/11 08:03:51;;;;;;;27.37;24.57;;;3.90;65.00;;;;;;4973891;28;20985;-91
2021/11/11 08:06:16;;;;;;;25.43;22.67;;;3.90;65.20;;;;;;4978252;28;20418;-92
2021/11/11 08:08:48;;;;;;;26.50;23.70;;;3.90;65.50;;;;;;4976021;28;20185;-93
2021/11/11 08:11:16;;;;;;;24.97;22.77;;;4.00;64.70;;;;;;4974373;28;20488;-91
2021/11/11 08:13:44;;;;;;;26.37;23.60;;;4.00;64.60;;;;;;4972308;28;20418;-90
2021/11/11 08:16:09;;;;;;;27.83;24.73;;;4.00;63.50;;;;;;4974221;28;20418;-91
2021/11/11 08:18:35;;;;;;;27.10;24.30;;;4.20;64.30;;;;;;4974877;28;20806;-91
2021/11/11 08:21:01;;;;;;;30.60;27.57;;;4.20;63.20;;;;;;4977022;28;20182;-91
2021/11/11 08:23:27;;;;;;;27.00;24.40;;;4.20;64.00;;;;;;4977573;28;20245;-91
2021/11/11 08:25:53;;;;;;;26.30;23.73;;;4.20;64.30;;;;;;4977216;28;20426;-93
2021/11/11 08:28:21;;;;;;;26.53;23.87;;;4.20;63.90;;;;;;4976989;28;20414;-91
2021/11/11 08:30:48;;;;;;;25.87;23.27;;;4.30;64.40;;;;;;4977149;28;20465;-94
2021/11/11 08:33:16;;;;;;;26.83;24.40;;;4.40;63.00;;;;;;4977594;28;20429;-92
2021/11/11 08:35:46;;;;;;;25.93;23.17;;;4.40;63.20;;;;;;4978009;28;20445;-92
2021/11/11 08:38:12;;;;;;;24.07;21.77;;;4.50;63.00;;;;;;4977114;28;20512;-93
2021/11/11 08:40:38;;;;;;;27.47;24.60;;;4.70;62.30;;;;;;4978002;28;20429;-93
2021/11/11 08:43:04;;;;;;;25.33;22.57;;;4.80;62.60;;;;;;4977882;28;20446;-92
2021/11/11 08:45:35;;;;;;;24.40;21.97;;;5.00;62.20;;;;;;4977531;28;20426;-94
2021/11/11 08:48:01;;;;;;;24.10;21.60;;;4.90;61.20;;;;;;4977467;28;20579;-90
2021/11/11 08:50:30;;;;;;;23.10;20.60;;;5.10;60.80;;;;;;4977406;28;20492;-88
2021/11/11 08:52:58;;;;;;;22.70;20.50;;;5.10;60.60;;;;;;4975754;28;20417;-92
2021/11/11 08:55:35;;;;;;;23.03;20.53;;;5.20;60.40;;;;;;4977162;28;20465;-96
2021/11/11 08:58:09;;;;;;;21.97;19.87;;;5.30;61.20;;;;;;4979449;28;20414;-92
2021/11/11 09:00:44;;;;;;;22.43;20.07;;;5.50;61.30;;;;;;4978086;28;20428;-91
2021/11/11 09:03:12;;;;;;;22.77;20.27;;;5.40;60.60;;;;;;4978034;28;20429;-92
2021/11/11 09:05:38;;;;;;;21.20;19.30;;;5.50;61.50;;;;;;4977618;28;20426;-91
2021/11/11 09:08:05;;;;;;;25.57;21.90;;;5.50;61.50;;;;;;4976910;28;20417;-89
2021/11/11 09:10:31;;;;;;;22.17;19.80;;;5.70;61.10;;;;;;4980172;28;20450;-91
2021/11/11 09:12:58;;;;;;;22.63;20.23;;;5.60;61.30;;;;;;4979772;28;20449;-91
2021/11/11 09:15:27;;;;;;;23.17;20.77;;;5.60;62.10;;;;;;4980125;28;20449;-91
2021/11/11 09:17:55;;;;;;;28.10;20.00;;;5.70;62.10;;;;;;4980085;28;20835;-91
2021/11/11 09:20:22;;;;;;;22.27;19.97;;;5.80;61.80;;;;;;4979811;28;20413;-90
2021/11/11 09:22:49;;;;;;;23.07;20.37;;;5.80;61.70;;;;;;4978230;28;20422;-89
2021/11/11 09:25:15;;;;;;;22.93;20.17;;;5.80;62.40;;;;;;4980314;28;20418;-96
2021/11/11 09:27:42;;;;;;;22.87;20.50;;;5.90;62.00;;;;;;4979734;28;20843;-95
2021/11/11 09:30:18;;;;;;;21.90;20.00;;;6.10;62.20;;;;;;4979105;28;20258;-94
2021/11/11 09:32:45;;;;;;;23.20;21.00;;;6.30;61.60;;;;;;4979064;28;20453;-93
2021/11/11 09:35:12;;;;;;;23.03;20.73;;;6.40;60.80;;;;;;4978571;28;20417;-92
2021/11/11 09:37:41;;;;;;;21.57;19.47;;;6.40;59.70;;;;;;4990394;28;20457;-94
2021/11/11 09:40:11;;;;;;;21.53;19.43;;;6.50;58.90;;;;;;4988244;28;20411;-92
2021/11/11 09:42:40;;;;;;;22.37;19.93;;;6.50;59.00;;;;;;4984007;28;20918;-90
2021/11/11 09:45:12;;;;;;;23.20;19.17;;;6.40;58.60;;;;;;4983688;28;20454;-93
2021/11/11 09:47:38;;;;;;;22.33;19.93;;;6.30;58.80;;;;;;4986494;28;20407;-94
2021/11/11 09:50:06;;;;;;;25.83;21.13;;;6.30;59.00;;;;;;4986025;28;20497;-94
2021/11/11 09:52:33;;;;;;;22.27;19.87;;;6.50;59.00;;;;;;4980729;28;20775;-94
2021/11/11 10:00:50;;;;;;;22.90;20.30;;;6.60;58.10;;;;;;4990359;28;20407;-96
2021/11/11 10:03:17;;;;;;;23.60;21.07;;;6.90;58.60;;;;;;4983665;28;20449;-96
2021/11/11 10:05:43;;;;;;;23.03;20.63;;;6.90;57.30;;;;;;4984582;28;20453;-95
2021/11/11 10:08:28;;;;;;;24.10;21.23;;;6.90;57.30;;;;;;4981172;28;20417;-91
2021/11/11 10:10:54;;;;;;;22.77;20.47;;;6.80;57.40;;;;;;4983091;28;20465;-95
2021/11/11 10:13:21;;;;;;;21.80;19.77;;;6.80;57.50;;;;;;4981052;28;20426;-95
2021/11/11 10:16:04;;;;;;;23.70;18.33;;;6.70;57.50;;;;;;4981621;28;20187;-94
2021/11/11 10:18:51;;;;;;;22.40;20.20;;;6.70;57.80;;;;;;4982245;28;20411;-95
2021/11/11 10:21:32;;;;;;;23.63;21.30;;;6.70;57.80;;;;;;4988873;28;20425;-94
2021/11/11 10:24:11;;;;;;;23.10;20.60;;;6.60;57.70;;;;;;4981449;28;20913;-94
2021/11/11 10:26:43;;;;;;;24.47;21.40;;;6.80;58.10;;;;;;4981887;28;20448;-93
2021/11/11 10:29:31;;;;;;;22.50;20.20;;;6.80;57.40;;;;;;4981259;28;20441;-93
2021/11/11 10:32:08;;;;;;;28.27;22.57;;;6.70;58.20;;;;;;4981973;28;20490;-94
2021/11/11 10:38:01;;;;;;;24.53;22.07;;;6.70;58.70;;;;;;4984519;28;20458;-94
2021/11/11 10:40:30;;;;;;;24.80;21.97;;;6.80;59.20;;;;;;4981875;28;20398;-93
2021/11/11 10:42:57;;;;;;;23.17;20.77;;;6.90;59.30;;;;;;4981936;28;20426;-94
2021/11/11 10:45:35;;;;;;;23.13;20.83;;;7.00;59.30;;;;;;4986239;28;20410;-95
2021/11/11 10:48:04;;;;;;;29.33;22.23;;;7.00;58.70;;;;;;4987026;28;20441;-93
2021/11/11 10:50:35;;;;;;;29.27;22.40;;;7.10;57.90;;;;;;4988040;28;20990;-94
2021/11/11 10:53:03;;;;;;;25.37;22.87;;;7.20;57.80;;;;;;4986164;28;20444;-93
2021/11/11 10:55:32;;;;;;;24.57;21.97;;;7.30;56.30;;;;;;4987602;28;20458;-94
2021/11/11 10:58:11;;;;;;;24.73;22.20;;;7.30;57.00;;;;;;4987996;28;20464;-95
2021/11/11 11:01:09;;;;;;;24.27;21.77;;;7.30;56.80;;;;;;4990016;28;20437;-94
2021/11/11 11:03:45;;;;;;;22.53;20.40;;;7.20;56.50;;;;;;4987036;28;20413;-93
2021/11/11 11:06:23;;;;;;;24.43;21.43;;;7.20;56.40;;;;;;4992308;28;20416;-94
2021/11/11 11:08:57;;;;;;;24.53;22.03;;;7.20;56.40;;;;;;4982950;28;20461;-90
2021/11/11 11:11:30;;;;;;;23.93;21.30;;;7.30;56.60;;;;;;4976492;28;21010;-90
2021/11/11 11:14:00;;;;;;;23.30;20.90;;;7.30;56.50;;;;;;4976476;28;20500;-90
2021/11/11 11:16:33;;;;;;;24.67;21.97;;;7.40;56.40;;;;;;4976152;28;20619;-91
2021/11/11 11:19:08;;;;;;;25.10;22.60;;;7.40;55.70;;;;;;4975215;28;20415;-91
2021/11/11 11:21:40;;;;;;;25.97;23.20;;;7.40;56.10;;;;;;4976006;28;20181;-91
2021/11/11 11:24:10;;;;;;;25.77;22.93;;;7.40;55.90;;;;;;4975950;28;20429;-92
2021/11/11 11:26:50;;;;;;;26.20;23.70;;;7.50;56.80;;;;;;4976643;28;20454;-91
2021/11/11 11:29:55;;;;;;;27.10;24.37;;;7.60;55.60;;;;;;4976445;28;20425;-91
2021/11/11 11:32:24;;;;;;;25.07;22.60;;;7.70;55.20;;;;;;4976164;28;20484;-90
2021/11/11 11:34:55;;;;;;;23.17;20.80;;;7.70;55.80;;;;;;4975990;28;20449;-90
2021/11/11 11:37:28;;;;;;;23.43;20.40;;;7.70;55.20;;;;;;4977523;28;20445;-91
2021/11/11 11:40:00;;;;;;;24.00;21.47;;;7.60;54.10;;;;;;4978390;28;20428;-91
2021/11/11 11:42:34;;;;;;;21.97;19.77;;;7.60;54.80;;;;;;4976396;28;20424;-90
2021/11/11 11:45:12;;;;;;;22.40;20.00;;;7.50;54.40;;;;;;4974527;28;20418;-91
2021/11/11 11:47:43;;;;;;;21.87;19.67;;;7.60;55.10;;;;;;4974844;28;20433;-90
2021/11/11 11:50:19;;;;;;;30.30;20.57;;;7.70;54.90;;;;;;4974451;28;20900;-91
2021/11/11 11:52:50;;;;;;;22.93;20.60;;;7.70;54.80;;;;;;4976200;28;20425;-90
2021/11/11 11:55:28;;;;;;;22.60;20.17;;;7.70;55.10;;;;;;4975033;28;20561;-91
2021/11/11 12:09:06;;;;;;;19.37;17.40;;;7.80;54.30;;;;;;4975526;28;20420;-92
2021/11/11 12:39:43;;;;;;;23.43;21.03;;;7.80;55.90;;;;;;4979487;28;20397;-92
2021/11/11 12:42:29;;;;;;;21.73;19.60;;;7.80;56.40;;;;;;4976542;28;20938;-92
2021/11/11 12:45:18;;;;;;;25.73;21.03;;;7.80;56.80;;;;;;4977081;28;20457;-92
2021/11/11 12:47:56;;;;;;;23.60;21.33;;;7.80;56.50;;;;;;4975319;28;20433;-92
2021/11/11 12:50:36;;;;;;;25.47;22.73;;;7.80;56.50;;;;;;4976767;28;20457;-93
2021/11/11 12:53:11;;;;;;;25.33;22.60;;;7.90;56.40;;;;;;4977695;28;20868;-90
2021/11/11 12:55:45;;;;;;;24.47;21.93;;;7.90;56.20;;;;;;4990650;28;20430;-90
2021/11/11 12:58:20;;;;;;;26.43;23.73;;;7.90;56.10;;;;;;4982988;28;20758;-89
2021/11/11 13:00:52;;;;;;;26.03;23.40;;;7.90;56.90;;;;;;4977204;28;20425;-87
2021/11/11 13:03:19;;;;;;;27.37;24.43;;;8.00;57.10;;;;;;4977701;28;20839;-89
2021/11/11 13:05:48;;;;;;;27.93;25.03;;;8.00;56.60;;;;;;4976288;28;20417;-90
2021/11/11 13:08:18;;;;;;;26.07;23.40;;;8.00;56.50;;;;;;4977085;28;20418;-91
2021/11/11 13:11:03;;;;;;;28.67;24.20;;;8.00;56.50;;;;;;4979011;28;21076;-91
2021/11/11 13:13:29;;;;;;;29.40;25.73;;;8.00;56.40;;;;;;4976815;28;20414;-92
2021/11/11 13:16:16;;;;;;;28.43;25.53;;;8.00;56.20;;;;;;4977048;28;20414;-93
2021/11/11 13:18:44;;;;;;;26.33;23.73;;;8.00;55.70;;;;;;4978107;28;20184;-91
2021/11/11 13:21:27;;;;;;;29.10;25.97;;;8.00;56.30;;;;;;4977067;28;20430;-91
2021/11/11 13:24:13;;;;;;;29.10;26.00;;;7.90;56.60;;;;;;4976193;28;20421;-92
2021/11/11 13:54:26;;;;;;;29.37;26.17;;;8.10;55.60;;;;;;4982835;28;20482;-92
2021/11/11 14:00:34;;;;;;;27.87;25.07;;;7.90;55.80;;;;;;4980476;28;20921;-92
2021/11/11 15:20:49;;;;;;;27.13;24.43;;;7.10;59.70;;;;;;4977563;28;20540;-90
2021/11/11 16:22:34;;;;;;;28.67;25.80;;;5.50;68.60;;;;;;4979875;28;20402;-92
2021/11/11 16:27:29;;;;;;;26.90;24.27;;;5.30;68.50;;;;;;4980039;28;20538;-93
2021/11/11 16:30:20;;;;;;;30.00;27.10;;;5.30;68.80;;;;;;4980341;28;20529;-93
2021/11/11 16:32:48;;;;;;;30.30;27.30;;;5.30;69.60;;;;;;4976250;28;20422;-93
2021/11/11 16:35:15;;;;;;;30.50;27.70;;;5.20;68.60;;;;;;4978213;28;20505;-93
2021/11/11 16:37:43;;;;;;;31.93;29.03;;;5.10;70.60;;;;;;4977985;28;20418;-94
2021/11/11 16:40:12;;;;;;;31.63;28.53;;;5.10;71.00;;;;;;4980649;28;20418;-93
2021/11/11 16:42:38;;;;;;;30.60;27.60;;;4.80;72.40;;;;;;4979586;28;20434;-94
2021/11/11 16:45:05;;;;;;;32.28;28.88;;;4.80;74.40;;;;;;4979126;28;20418;-93
2021/11/11 16:47:31;;;;;;;33.00;29.70;;;4.80;73.90;;;;;;4979940;28;20206;-93
2021/11/11 16:49:57;;;;;;;31.73;28.33;;;4.70;75.60;;;;;;4978775;28;20472;-92
2021/11/11 16:52:23;;;;;;;31.50;28.00;;;4.60;75.30;;;;;;4971517;28;20190;-87
2021/11/11 16:54:49;;;;;;;34.70;31.00;;;4.70;77.20;;;;;;4955743;29;20505;-91
2021/11/11 16:57:15;;;;;;;33.07;29.93;;;4.70;75.30;;;;;;4954547;29;20761;-85
2021/11/11 16:59:41;;;;;;;34.23;30.77;;;4.70;75.30;;;;;;4954056;29;20419;-88